EZY787Q EGGW-EGPF
Flight info
| Callsign | EZY787Q |
|---|---|
| Flight time | 0h 52m |
| Altitude | 34000 |
| Route | OLNEY T420 TNT UN57 POL UN601 RIBEL DCT ASLIB |
| Aircraft | A320/M-SDE3FGHIRWY/LB1 |
Departure
| Time | 2026-05-07 20:34 |
|---|---|
| Airport | London Luton Airport (EGGW) |
Arrival
| Time | 2026-05-07 21:27 |
|---|---|
| Airport | Glasgow Airport (EGPF) |
| Time | Latitude | Longitude | Altitude | Speed | Heading |
|---|---|---|---|---|---|
| 2026-05-07 19:58 | 51.88133 | -0.37617 | 524 ft | 0 kts | 113° |
| 2026-05-07 20:23 | 51.88134 | -0.37621 | 523 ft | 2 kts | 112° |
| 2026-05-07 20:23 | 51.88142 | -0.37650 | 523 ft | 3 kts | 109° |
| 2026-05-07 20:24 | 51.88144 | -0.37690 | 523 ft | 4 kts | 103° |
| 2026-05-07 20:24 | 51.88152 | -0.37721 | 523 ft | 4 kts | 162° |
| 2026-05-07 20:24 | 51.88163 | -0.37712 | 523 ft | 4 kts | 236° |
| 2026-05-07 20:24 | 51.88170 | -0.37694 | 523 ft | 0 kts | 239° |
| 2026-05-07 20:26 | 51.88153 | -0.37739 | 523 ft | 9 kts | 236° |
| 2026-05-07 20:27 | 51.88113 | -0.37815 | 523 ft | 8 kts | 225° |
| 2026-05-07 20:27 | 51.88071 | -0.37868 | 523 ft | 7 kts | 217° |
| 2026-05-07 20:27 | 51.88035 | -0.37913 | 523 ft | 6 kts | 219° |
| 2026-05-07 20:27 | 51.88004 | -0.37952 | 523 ft | 5 kts | 219° |
| 2026-05-07 20:28 | 51.87978 | -0.37983 | 523 ft | 4 kts | 213° |
| 2026-05-07 20:28 | 51.87954 | -0.38003 | 523 ft | 5 kts | 204° |
| 2026-05-07 20:28 | 51.87910 | -0.38025 | 523 ft | 8 kts | 188° |
| 2026-05-07 20:28 | 51.87860 | -0.38003 | 523 ft | 7 kts | 155° |
| 2026-05-07 20:29 | 51.87817 | -0.37959 | 523 ft | 7 kts | 136° |
| 2026-05-07 20:29 | 51.87792 | -0.37893 | 523 ft | 6 kts | 119° |
| 2026-05-07 20:29 | 51.87773 | -0.37835 | 523 ft | 5 kts | 119° |
| 2026-05-07 20:29 | 51.87758 | -0.37787 | 523 ft | 4 kts | 109° |
| 2026-05-07 20:30 | 51.87749 | -0.37747 | 523 ft | 4 kts | 109° |
| 2026-05-07 20:30 | 51.87728 | -0.37667 | 520 ft | 12 kts | 117° |
| 2026-05-07 20:30 | 51.87692 | -0.37549 | 520 ft | 10 kts | 120° |
| 2026-05-07 20:30 | 51.87648 | -0.37482 | 522 ft | 8 kts | 147° |
| 2026-05-07 20:31 | 51.87603 | -0.37459 | 523 ft | 6 kts | 174° |
| 2026-05-07 20:31 | 51.87559 | -0.37463 | 522 ft | 7 kts | 188° |
| 2026-05-07 20:31 | 51.87517 | -0.37501 | 521 ft | 7 kts | 225° |
| 2026-05-07 20:31 | 51.87502 | -0.37551 | 522 ft | 4 kts | 257° |
| 2026-05-07 20:32 | 51.87496 | -0.37587 | 523 ft | 3 kts | 254° |
| 2026-05-07 20:32 | 51.87492 | -0.37609 | 523 ft | 1 kts | 254° |
| 2026-05-07 20:32 | 51.87484 | -0.37659 | 523 ft | 6 kts | 255° |
| 2026-05-07 20:32 | 51.87473 | -0.37720 | 523 ft | 6 kts | 253° |
| 2026-05-07 20:33 | 51.87457 | -0.37816 | 522 ft | 13 kts | 254° |
| 2026-05-07 20:33 | 51.87429 | -0.37970 | 524 ft | 13 kts | 251° |
| 2026-05-07 20:33 | 51.87369 | -0.38050 | 523 ft | 11 kts | 219° |
| 2026-05-07 20:33 | 51.87286 | -0.38098 | 522 ft | 18 kts | 161° |
| 2026-05-07 20:34 | 51.87311 | -0.37719 | 522 ft | 69 kts | 74° |
| 2026-05-07 20:34 | 51.87503 | -0.36603 | 526 ft | 134 kts | 75° |
| 2026-05-07 20:34 | 51.87794 | -0.34939 | 847 ft | 158 kts | 76° |
| 2026-05-07 20:34 | 51.88099 | -0.33228 | 1621 ft | 161 kts | 77° |
| 2026-05-07 20:35 | 51.88427 | -0.31386 | 2004 ft | 179 kts | 78° |
| 2026-05-07 20:35 | 51.88781 | -0.29335 | 2308 ft | 201 kts | 77° |
| 2026-05-07 20:35 | 51.89373 | -0.27136 | 2637 ft | 229 kts | 50° |
| 2026-05-07 20:35 | 51.90797 | -0.25760 | 3029 ft | 256 kts | 11° |
| 2026-05-07 20:36 | 51.92579 | -0.26095 | 3656 ft | 266 kts | 332° |
| 2026-05-07 20:36 | 51.93936 | -0.28092 | 4478 ft | 267 kts | 296° |
| 2026-05-07 20:36 | 51.94343 | -0.30974 | 5362 ft | 266 kts | 264° |
| 2026-05-07 20:36 | 51.94007 | -0.33938 | 5852 ft | 268 kts | 254° |
| 2026-05-07 20:37 | 51.93534 | -0.36857 | 6138 ft | 270 kts | 254° |
| 2026-05-07 20:37 | 51.93370 | -0.39881 | 6998 ft | 273 kts | 281° |
| 2026-05-07 20:37 | 51.94163 | -0.42672 | 7848 ft | 277 kts | 304° |
| 2026-05-07 20:37 | 51.95390 | -0.45090 | 8726 ft | 280 kts | 311° |
| 2026-05-07 20:38 | 51.96778 | -0.47335 | 9576 ft | 284 kts | 315° |
| 2026-05-07 20:38 | 51.98227 | -0.49542 | 10301 ft | 291 kts | 315° |
| 2026-05-07 20:38 | 51.99762 | -0.51887 | 10544 ft | 315 kts | 315° |
| 2026-05-07 20:38 | 52.01373 | -0.54412 | 11028 ft | 327 kts | 314° |
| 2026-05-07 20:39 | 52.02978 | -0.56996 | 11703 ft | 332 kts | 313° |
| 2026-05-07 20:39 | 52.04635 | -0.59723 | 12417 ft | 337 kts | 313° |
| 2026-05-07 20:39 | 52.06280 | -0.62467 | 13094 ft | 342 kts | 312° |
| 2026-05-07 20:39 | 52.07946 | -0.65267 | 13794 ft | 347 kts | 312° |
| 2026-05-07 20:40 | 52.09629 | -0.68110 | 14414 ft | 351 kts | 312° |
| 2026-05-07 20:40 | 52.11302 | -0.70934 | 15029 ft | 354 kts | 312° |
| 2026-05-07 20:40 | 52.13125 | -0.73655 | 15673 ft | 359 kts | 321° |
| 2026-05-07 20:40 | 52.15234 | -0.75864 | 16306 ft | 362 kts | 327° |
| 2026-05-07 20:41 | 52.17402 | -0.77990 | 16955 ft | 365 kts | 327° |
| 2026-05-07 20:41 | 52.19582 | -0.80139 | 17596 ft | 368 kts | 327° |
| 2026-05-07 20:41 | 52.21775 | -0.82311 | 18232 ft | 370 kts | 326° |
| 2026-05-07 20:41 | 52.23985 | -0.84502 | 18787 ft | 373 kts | 326° |
| 2026-05-07 20:42 | 52.26210 | -0.86705 | 19336 ft | 375 kts | 326° |
| 2026-05-07 20:42 | 52.28450 | -0.88924 | 19884 ft | 378 kts | 326° |
| 2026-05-07 20:42 | 52.30709 | -0.91163 | 20422 ft | 380 kts | 326° |
| 2026-05-07 20:42 | 52.32976 | -0.93414 | 20955 ft | 383 kts | 326° |
| 2026-05-07 20:43 | 52.35255 | -0.95687 | 21485 ft | 385 kts | 326° |
| 2026-05-07 20:43 | 52.37547 | -0.97975 | 21993 ft | 387 kts | 326° |
| 2026-05-07 20:43 | 52.39856 | -1.00284 | 22500 ft | 390 kts | 326° |
| 2026-05-07 20:43 | 52.42176 | -1.02607 | 22993 ft | 393 kts | 326° |
| 2026-05-07 20:44 | 52.44514 | -1.04956 | 23447 ft | 395 kts | 326° |
| 2026-05-07 20:44 | 52.46867 | -1.07319 | 23868 ft | 398 kts | 326° |
| 2026-05-07 20:44 | 52.49235 | -1.09694 | 24270 ft | 400 kts | 326° |
| 2026-05-07 20:44 | 52.51617 | -1.12084 | 24668 ft | 402 kts | 326° |
| 2026-05-07 20:45 | 52.54005 | -1.14484 | 25092 ft | 404 kts | 326° |
| 2026-05-07 20:45 | 52.56405 | -1.16903 | 25493 ft | 405 kts | 326° |
| 2026-05-07 20:45 | 52.58810 | -1.19329 | 25884 ft | 407 kts | 326° |
| 2026-05-07 20:45 | 52.61229 | -1.21774 | 26258 ft | 409 kts | 326° |
| 2026-05-07 20:46 | 52.63657 | -1.24233 | 26631 ft | 411 kts | 325° |
| 2026-05-07 20:46 | 52.66098 | -1.26711 | 26997 ft | 413 kts | 325° |
| 2026-05-07 20:46 | 52.68546 | -1.29201 | 27371 ft | 415 kts | 325° |
| 2026-05-07 20:46 | 52.71007 | -1.31703 | 27730 ft | 417 kts | 325° |
| 2026-05-07 20:47 | 52.73484 | -1.34223 | 28124 ft | 419 kts | 325° |
| 2026-05-07 20:47 | 52.75972 | -1.36751 | 28499 ft | 421 kts | 325° |
| 2026-05-07 20:47 | 52.78472 | -1.39295 | 28838 ft | 423 kts | 326° |
| 2026-05-07 20:47 | 52.80985 | -1.41859 | 29176 ft | 426 kts | 325° |
| 2026-05-07 20:48 | 52.83507 | -1.44441 | 29509 ft | 428 kts | 325° |
| 2026-05-07 20:48 | 52.86045 | -1.47046 | 29837 ft | 430 kts | 325° |
| 2026-05-07 20:48 | 52.88589 | -1.49663 | 30144 ft | 432 kts | 325° |
| 2026-05-07 20:48 | 52.91146 | -1.52292 | 30410 ft | 434 kts | 325° |
| 2026-05-07 20:49 | 52.93719 | -1.54934 | 30659 ft | 436 kts | 325° |
| 2026-05-07 20:49 | 52.96300 | -1.57590 | 30906 ft | 438 kts | 325° |
| 2026-05-07 20:49 | 52.98892 | -1.60265 | 31156 ft | 439 kts | 325° |
| 2026-05-07 20:49 | 53.01492 | -1.62950 | 31409 ft | 441 kts | 325° |
| 2026-05-07 20:50 | 53.04105 | -1.65640 | 31711 ft | 442 kts | 327° |
| 2026-05-07 20:50 | 53.06830 | -1.67879 | 32056 ft | 444 kts | 336° |
| 2026-05-07 20:50 | 53.09728 | -1.69679 | 32390 ft | 444 kts | 337° |
| 2026-05-07 20:50 | 53.12623 | -1.71464 | 32741 ft | 443 kts | 337° |
| 2026-05-07 20:51 | 53.15513 | -1.73254 | 33087 ft | 443 kts | 336° |
| 2026-05-07 20:51 | 53.18395 | -1.75047 | 33422 ft | 442 kts | 336° |
| 2026-05-07 20:51 | 53.21275 | -1.76843 | 33767 ft | 441 kts | 336° |
| 2026-05-07 20:51 | 53.24151 | -1.78639 | 34025 ft | 441 kts | 336° |
| 2026-05-07 20:52 | 53.27004 | -1.80418 | 34052 ft | 434 kts | 337° |
| 2026-05-07 20:52 | 53.32612 | -1.83910 | 34051 ft | 429 kts | 337° |
| 2026-05-07 20:53 | 53.38193 | -1.87398 | 34036 ft | 428 kts | 336° |
| 2026-05-07 20:53 | 53.43767 | -1.90899 | 34034 ft | 428 kts | 336° |
| 2026-05-07 20:54 | 53.49334 | -1.94414 | 34035 ft | 428 kts | 336° |
| 2026-05-07 20:54 | 53.54907 | -1.97927 | 34034 ft | 427 kts | 336° |
| 2026-05-07 20:55 | 53.60469 | -2.01455 | 34034 ft | 427 kts | 336° |
| 2026-05-07 20:55 | 53.65090 | -2.04403 | 34034 ft | 427 kts | 336° |
| 2026-05-07 20:56 | 53.70646 | -2.07950 | 34034 ft | 427 kts | 336° |
| 2026-05-07 20:56 | 53.76161 | -2.11493 | 34036 ft | 427 kts | 336° |
| 2026-05-07 20:57 | 53.81663 | -2.15216 | 34027 ft | 427 kts | 335° |
| 2026-05-07 20:57 | 53.87165 | -2.19038 | 34030 ft | 428 kts | 335° |
| 2026-05-07 20:58 | 53.92682 | -2.22840 | 34033 ft | 428 kts | 335° |
| 2026-05-07 20:58 | 53.98210 | -2.26629 | 34040 ft | 428 kts | 335° |
| 2026-05-07 20:59 | 54.03629 | -2.30820 | 34030 ft | 428 kts | 328° |
| 2026-05-07 20:59 | 54.08847 | -2.35701 | 34027 ft | 428 kts | 328° |
| 2026-05-07 21:00 | 54.14019 | -2.40563 | 34026 ft | 428 kts | 328° |
| 2026-05-07 21:00 | 54.19229 | -2.45480 | 34027 ft | 428 kts | 328° |
| 2026-05-07 21:01 | 54.24435 | -2.50392 | 34030 ft | 428 kts | 328° |
| 2026-05-07 21:01 | 54.29664 | -2.55320 | 34011 ft | 429 kts | 328° |
| 2026-05-07 21:02 | 54.34897 | -2.60282 | 34001 ft | 430 kts | 328° |
| 2026-05-07 21:02 | 54.40135 | -2.65271 | 34004 ft | 431 kts | 328° |
| 2026-05-07 21:03 | 54.45436 | -2.70347 | 34021 ft | 442 kts | 328° |
| 2026-05-07 21:03 | 54.50833 | -2.75512 | 34022 ft | 446 kts | 328° |
| 2026-05-07 21:04 | 54.56259 | -2.80719 | 33558 ft | 447 kts | 328° |
| 2026-05-07 21:04 | 54.58970 | -2.83325 | 32873 ft | 445 kts | 328° |
| 2026-05-07 21:04 | 54.61660 | -2.85914 | 32271 ft | 442 kts | 328° |
| 2026-05-07 21:04 | 54.64332 | -2.88489 | 31709 ft | 438 kts | 328° |
| 2026-05-07 21:05 | 54.66978 | -2.91045 | 31173 ft | 434 kts | 328° |
| 2026-05-07 21:05 | 54.69603 | -2.93590 | 30650 ft | 431 kts | 327° |
| 2026-05-07 21:05 | 54.72207 | -2.96117 | 30153 ft | 428 kts | 327° |
| 2026-05-07 21:05 | 54.74802 | -2.98640 | 29515 ft | 426 kts | 327° |
| 2026-05-07 21:06 | 54.77376 | -3.01145 | 28933 ft | 423 kts | 327° |
| 2026-05-07 21:06 | 54.79926 | -3.03630 | 28386 ft | 419 kts | 327° |
| 2026-05-07 21:06 | 54.82452 | -3.06097 | 27837 ft | 415 kts | 327° |
| 2026-05-07 21:06 | 54.84954 | -3.08546 | 27322 ft | 411 kts | 327° |
| 2026-05-07 21:07 | 54.87436 | -3.10973 | 26804 ft | 407 kts | 327° |
| 2026-05-07 21:07 | 54.89890 | -3.13378 | 26293 ft | 403 kts | 327° |
| 2026-05-07 21:07 | 54.92324 | -3.15764 | 25794 ft | 400 kts | 327° |
| 2026-05-07 21:07 | 54.94734 | -3.18131 | 25300 ft | 396 kts | 327° |
| 2026-05-07 21:08 | 54.97125 | -3.20485 | 24834 ft | 393 kts | 327° |
| 2026-05-07 21:08 | 54.99495 | -3.22820 | 24342 ft | 390 kts | 327° |
| 2026-05-07 21:08 | 55.01850 | -3.25146 | 23867 ft | 387 kts | 327° |
| 2026-05-07 21:08 | 55.04150 | -3.27423 | 23402 ft | 384 kts | 327° |
| 2026-05-07 21:09 | 55.06465 | -3.29716 | 22841 ft | 379 kts | 326° |
| 2026-05-07 21:09 | 55.08748 | -3.31976 | 21958 ft | 376 kts | 326° |
| 2026-05-07 21:09 | 55.10998 | -3.34206 | 21342 ft | 366 kts | 326° |
| 2026-05-07 21:09 | 55.13165 | -3.36353 | 21012 ft | 353 kts | 326° |
| 2026-05-07 21:10 | 55.15282 | -3.38461 | 20675 ft | 349 kts | 326° |
| 2026-05-07 21:10 | 55.17382 | -3.40558 | 20340 ft | 346 kts | 326° |
| 2026-05-07 21:10 | 55.19469 | -3.42645 | 20005 ft | 345 kts | 326° |
| 2026-05-07 21:10 | 55.21537 | -3.44716 | 19484 ft | 340 kts | 326° |
| 2026-05-07 21:11 | 55.23581 | -3.46760 | 18845 ft | 337 kts | 326° |
| 2026-05-07 21:11 | 55.25609 | -3.48791 | 18210 ft | 334 kts | 326° |
| 2026-05-07 21:11 | 55.29613 | -3.52801 | 16868 ft | 328 kts | 326° |
| 2026-05-07 21:12 | 55.31582 | -3.54778 | 16233 ft | 324 kts | 326° |
| 2026-05-07 21:12 | 55.33530 | -3.56737 | 15616 ft | 321 kts | 326° |
| 2026-05-07 21:12 | 55.35457 | -3.58675 | 15026 ft | 317 kts | 326° |
| 2026-05-07 21:12 | 55.37364 | -3.60595 | 14457 ft | 314 kts | 326° |
| 2026-05-07 21:13 | 55.39252 | -3.62498 | 13893 ft | 311 kts | 326° |
| 2026-05-07 21:13 | 55.41121 | -3.64385 | 13288 ft | 308 kts | 326° |
| 2026-05-07 21:13 | 55.42968 | -3.66254 | 12658 ft | 304 kts | 326° |
| 2026-05-07 21:13 | 55.44791 | -3.68099 | 12049 ft | 301 kts | 326° |
| 2026-05-07 21:14 | 55.46595 | -3.69924 | 11474 ft | 297 kts | 326° |
| 2026-05-07 21:14 | 55.48376 | -3.71724 | 10898 ft | 294 kts | 326° |
| 2026-05-07 21:14 | 55.50139 | -3.73509 | 10327 ft | 291 kts | 326° |
| 2026-05-07 21:14 | 55.51883 | -3.75282 | 9742 ft | 288 kts | 326° |
| 2026-05-07 21:15 | 55.53616 | -3.77020 | 9072 ft | 287 kts | 330° |
| 2026-05-07 21:15 | 55.55493 | -3.78158 | 8721 ft | 287 kts | 341° |
| 2026-05-07 21:15 | 55.57431 | -3.79085 | 8426 ft | 289 kts | 341° |
| 2026-05-07 21:15 | 55.59369 | -3.79993 | 8141 ft | 289 kts | 341° |
| 2026-05-07 21:16 | 55.61309 | -3.80899 | 7857 ft | 288 kts | 341° |
| 2026-05-07 21:16 | 55.63241 | -3.81803 | 7569 ft | 287 kts | 341° |
| 2026-05-07 21:16 | 55.65164 | -3.82705 | 7288 ft | 286 kts | 341° |
| 2026-05-07 21:16 | 55.67092 | -3.83614 | 7011 ft | 285 kts | 341° |
| 2026-05-07 21:17 | 55.69003 | -3.84520 | 6737 ft | 284 kts | 341° |
| 2026-05-07 21:17 | 55.70902 | -3.85420 | 6462 ft | 282 kts | 341° |
| 2026-05-07 21:17 | 55.72796 | -3.86320 | 6189 ft | 281 kts | 341° |
| 2026-05-07 21:17 | 55.74680 | -3.87219 | 5899 ft | 280 kts | 341° |
| 2026-05-07 21:18 | 55.76563 | -3.88112 | 5599 ft | 279 kts | 341° |
| 2026-05-07 21:18 | 55.78432 | -3.88995 | 5324 ft | 277 kts | 341° |
| 2026-05-07 21:18 | 55.80291 | -3.89877 | 5039 ft | 276 kts | 341° |
| 2026-05-07 21:18 | 55.82137 | -3.90754 | 4760 ft | 274 kts | 341° |
| 2026-05-07 21:19 | 55.83980 | -3.91632 | 4468 ft | 274 kts | 341° |
| 2026-05-07 21:19 | 55.85811 | -3.92535 | 4125 ft | 271 kts | 338° |
| 2026-05-07 21:19 | 55.87463 | -3.93803 | 3795 ft | 251 kts | 319° |
| 2026-05-07 21:19 | 55.88682 | -3.95830 | 3468 ft | 233 kts | 307° |
| 2026-05-07 21:20 | 55.89737 | -3.97914 | 3136 ft | 222 kts | 305° |
| 2026-05-07 21:20 | 55.90742 | -3.99909 | 2958 ft | 214 kts | 305° |
| 2026-05-07 21:20 | 55.91713 | -4.01913 | 2705 ft | 212 kts | 301° |
| 2026-05-07 21:20 | 55.92589 | -4.03994 | 2596 ft | 209 kts | 296° |
| 2026-05-07 21:21 | 55.93297 | -4.06239 | 2598 ft | 207 kts | 290° |
| 2026-05-07 21:21 | 55.93938 | -4.08542 | 2600 ft | 207 kts | 289° |
| 2026-05-07 21:21 | 55.94566 | -4.10851 | 2600 ft | 207 kts | 289° |
| 2026-05-07 21:21 | 55.95190 | -4.13153 | 2599 ft | 206 kts | 289° |
| 2026-05-07 21:22 | 55.95782 | -4.15403 | 2592 ft | 193 kts | 284° |
| 2026-05-07 21:22 | 55.96195 | -4.17634 | 2594 ft | 187 kts | 280° |
| 2026-05-07 21:22 | 55.96555 | -4.19843 | 2598 ft | 184 kts | 279° |
| 2026-05-07 21:22 | 55.96876 | -4.21939 | 2609 ft | 163 kts | 271° |
| 2026-05-07 21:23 | 55.96876 | -4.23850 | 2602 ft | 149 kts | 253° |
| 2026-05-07 21:23 | 55.96540 | -4.25549 | 2530 ft | 143 kts | 236° |
| 2026-05-07 21:23 | 55.95936 | -4.26913 | 2405 ft | 139 kts | 224° |
| 2026-05-07 21:23 | 55.95270 | -4.28167 | 2231 ft | 139 kts | 225° |
| 2026-05-07 21:24 | 55.94605 | -4.29420 | 2063 ft | 137 kts | 224° |
| 2026-05-07 21:24 | 55.93964 | -4.30627 | 1874 ft | 132 kts | 224° |
| 2026-05-07 21:24 | 55.93335 | -4.31808 | 1696 ft | 130 kts | 223° |
| 2026-05-07 21:24 | 55.92711 | -4.32980 | 1506 ft | 130 kts | 224° |
| 2026-05-07 21:25 | 55.92088 | -4.34151 | 1316 ft | 130 kts | 224° |
| 2026-05-07 21:25 | 55.91471 | -4.35310 | 1140 ft | 130 kts | 224° |
| 2026-05-07 21:25 | 55.90849 | -4.36476 | 957 ft | 130 kts | 224° |
| 2026-05-07 21:25 | 55.90226 | -4.37644 | 769 ft | 131 kts | 225° |
| 2026-05-07 21:26 | 55.89599 | -4.38818 | 589 ft | 131 kts | 225° |
| 2026-05-07 21:26 | 55.88970 | -4.39997 | 414 ft | 131 kts | 225° |
| 2026-05-07 21:26 | 55.88341 | -4.41187 | 223 ft | 132 kts | 225° |
| 2026-05-07 21:26 | 55.87714 | -4.42365 | 38 ft | 131 kts | 224° |
| 2026-05-07 21:27 | 55.87171 | -4.43372 | 29 ft | 89 kts | 226° |
| 2026-05-07 21:27 | 55.86860 | -4.43953 | 29 ft | 47 kts | 226° |
| 2026-05-07 21:27 | 55.86649 | -4.44345 | 29 ft | 39 kts | 221° |
| 2026-05-07 21:27 | 55.86473 | -4.44518 | 29 ft | 23 kts | 197° |
| 2026-05-07 21:28 | 55.86366 | -4.44508 | 29 ft | 16 kts | 126° |
| 2026-05-07 21:28 | 55.86414 | -4.44351 | 29 ft | 15 kts | 46° |
| 2026-05-07 21:28 | 55.86484 | -4.44219 | 29 ft | 14 kts | 47° |
| 2026-05-07 21:28 | 55.86550 | -4.44099 | 29 ft | 13 kts | 46° |
| 2026-05-07 21:29 | 55.86613 | -4.43981 | 29 ft | 15 kts | 47° |
| 2026-05-07 21:29 | 55.86686 | -4.43839 | 29 ft | 16 kts | 45° |
| 2026-05-07 21:29 | 55.86735 | -4.43664 | 29 ft | 14 kts | 99° |
| 2026-05-07 21:29 | 55.86665 | -4.43594 | 29 ft | 12 kts | 163° |
| 2026-05-07 21:30 | 55.86578 | -4.43548 | 29 ft | 12 kts | 163° |
| 2026-05-07 21:30 | 55.86562 | -4.43499 | 29 ft | 5 kts | 69° |
| 2026-05-07 21:30 | 55.86575 | -4.43432 | 29 ft | 1 kts | 73° |
| 2026-05-07 21:30 | 55.86578 | -4.43418 | 29 ft | 0 kts | 73° |
| 2026-05-07 21:31 | 55.86580 | -4.43405 | 29 ft | 0 kts | 73° |